sensor_id;sensor_type;location;lat;lon;timestamp;P1;durP1;ratioP1;P2;durP2;ratioP2
17662;SDS011;8950;56.892;15.090;2022-09-09T00:01:37;3.15;;;1.80;;
17662;SDS011;8950;56.892;15.090;2022-09-09T00:04:10;3.20;;;1.80;;
17662;SDS011;8950;56.892;15.090;2022-09-09T00:06:43;4.25;;;1.70;;
17662;SDS011;8950;56.892;15.090;2022-09-09T00:09:12;3.10;;;1.95;;
17662;SDS011;8950;56.892;15.090;2022-09-09T00:11:40;2.33;;;1.65;;
17662;SDS011;8950;56.892;15.090;2022-09-09T00:14:08;2.05;;;1.50;;
17662;SDS011;8950;56.892;15.090;2022-09-09T00:16:36;1.52;;;1.42;;
17662;SDS011;8950;56.892;15.090;2022-09-09T00:19:05;3.08;;;1.70;;
17662;SDS011;8950;56.892;15.090;2022-09-09T00:21:33;3.03;;;1.63;;
17662;SDS011;8950;56.892;15.090;2022-09-09T00:23:59;2.35;;;1.90;;
17662;SDS011;8950;56.892;15.090;2022-09-09T00:26:30;1.77;;;1.60;;
17662;SDS011;8950;56.892;15.090;2022-09-09T00:28:58;3.03;;;1.75;;
17662;SDS011;8950;56.892;15.090;2022-09-09T00:31:27;2.05;;;1.85;;
17662;SDS011;8950;56.892;15.090;2022-09-09T00:33:54;2.35;;;1.90;;
17662;SDS011;8950;56.892;15.090;2022-09-09T00:36:23;2.65;;;1.58;;
17662;SDS011;8950;56.892;15.090;2022-09-09T00:38:52;2.55;;;1.83;;
17662;SDS011;8950;56.892;15.090;2022-09-09T00:41:20;1.90;;;1.70;;
17662;SDS011;8950;56.892;15.090;2022-09-09T00:43:55;1.63;;;1.50;;
17662;SDS011;8950;56.892;15.090;2022-09-09T00:49:09;2.58;;;1.80;;
17662;SDS011;8950;56.892;15.090;2022-09-09T00:51:40;4.60;;;1.90;;
17662;SDS011;8950;56.892;15.090;2022-09-09T00:54:24;2.78;;;1.67;;
17662;SDS011;8950;56.892;15.090;2022-09-09T00:56:59;6.47;;;1.90;;
17662;SDS011;8950;56.892;15.090;2022-09-09T00:59:32;1.88;;;1.67;;
17662;SDS011;8950;56.892;15.090;2022-09-09T01:02:02;2.53;;;1.70;;
17662;SDS011;8950;56.892;15.090;2022-09-09T01:04:29;5.05;;;2.10;;
17662;SDS011;8950;56.892;15.090;2022-09-09T01:07:00;1.80;;;1.70;;
17662;SDS011;8950;56.892;15.090;2022-09-09T01:09:29;2.55;;;1.98;;
17662;SDS011;8950;56.892;15.090;2022-09-09T01:11:59;2.97;;;1.80;;
17662;SDS011;8950;56.892;15.090;2022-09-09T01:14:35;3.67;;;1.95;;
17662;SDS011;8950;56.892;15.090;2022-09-09T01:17:05;3.13;;;1.80;;
17662;SDS011;8950;56.892;15.090;2022-09-09T01:19:37;4.40;;;2.00;;
17662;SDS011;8950;56.892;15.090;2022-09-09T01:22:09;2.03;;;1.83;;
17662;SDS011;8950;56.892;15.090;2022-09-09T01:24:40;4.00;;;1.90;;
17662;SDS011;8950;56.892;15.090;2022-09-09T01:27:11;3.80;;;2.00;;
17662;SDS011;8950;56.892;15.090;2022-09-09T01:29:38;4.22;;;2.10;;
17662;SDS011;8950;56.892;15.090;2022-09-09T01:34:46;5.68;;;2.03;;
17662;SDS011;8950;56.892;15.090;2022-09-09T01:37:13;3.75;;;2.10;;
17662;SDS011;8950;56.892;15.090;2022-09-09T01:39:40;3.28;;;1.90;;
17662;SDS011;8950;56.892;15.090;2022-09-09T01:42:08;2.78;;;1.90;;
17662;SDS011;8950;56.892;15.090;2022-09-09T01:44:37;2.33;;;2.00;;
17662;SDS011;8950;56.892;15.090;2022-09-09T01:47:04;2.92;;;2.30;;
17662;SDS011;8950;56.892;15.090;2022-09-09T01:49:31;2.42;;;1.95;;
17662;SDS011;8950;56.892;15.090;2022-09-09T01:51:57;3.92;;;2.10;;
17662;SDS011;8950;56.892;15.090;2022-09-09T01:54:26;5.20;;;2.20;;
17662;SDS011;8950;56.892;15.090;2022-09-09T01:56:55;4.65;;;2.00;;
17662;SDS011;8950;56.892;15.090;2022-09-09T01:59:30;2.97;;;2.08;;
17662;SDS011;8950;56.892;15.090;2022-09-09T02:02:02;2.47;;;2.07;;
17662;SDS011;8950;56.892;15.090;2022-09-09T02:04:34;3.45;;;1.90;;
17662;SDS011;8950;56.892;15.090;2022-09-09T02:07:02;3.25;;;2.00;;
17662;SDS011;8950;56.892;15.090;2022-09-09T02:09:29;2.67;;;2.40;;
17662;SDS011;8950;56.892;15.090;2022-09-09T02:11:57;4.97;;;2.50;;
17662;SDS011;8950;56.892;15.090;2022-09-09T02:14:27;3.97;;;2.10;;
17662;SDS011;8950;56.892;15.090;2022-09-09T02:16:56;5.35;;;2.22;;
17662;SDS011;8950;56.892;15.090;2022-09-09T02:19:25;2.83;;;1.90;;
17662;SDS011;8950;56.892;15.090;2022-09-09T02:21:54;4.30;;;2.25;;
17662;SDS011;8950;56.892;15.090;2022-09-09T02:24:21;3.53;;;2.20;;
17662;SDS011;8950;56.892;15.090;2022-09-09T02:26:49;2.83;;;2.10;;
17662;SDS011;8950;56.892;15.090;2022-09-09T02:29:17;4.93;;;2.53;;
17662;SDS011;8950;56.892;15.090;2022-09-09T02:31:45;5.45;;;2.30;;
17662;SDS011;8950;56.892;15.090;2022-09-09T02:34:13;3.67;;;2.03;;
17662;SDS011;8950;56.892;15.090;2022-09-09T02:36:41;3.92;;;2.15;;
17662;SDS011;8950;56.892;15.090;2022-09-09T02:39:09;5.15;;;2.30;;
17662;SDS011;8950;56.892;15.090;2022-09-09T02:41:37;2.65;;;2.10;;
17662;SDS011;8950;56.892;15.090;2022-09-09T02:44:05;2.90;;;2.25;;
17662;SDS011;8950;56.892;15.090;2022-09-09T02:46:36;4.07;;;3.00;;
17662;SDS011;8950;56.892;15.090;2022-09-09T02:49:09;4.03;;;2.28;;
17662;SDS011;8950;56.892;15.090;2022-09-09T02:51:37;3.63;;;2.35;;
17662;SDS011;8950;56.892;15.090;2022-09-09T02:54:10;3.30;;;2.40;;
17662;SDS011;8950;56.892;15.090;2022-09-09T02:56:38;6.28;;;2.58;;
17662;SDS011;8950;56.892;15.090;2022-09-09T02:59:09;4.32;;;2.42;;
17662;SDS011;8950;56.892;15.090;2022-09-09T03:01:36;3.97;;;2.72;;
17662;SDS011;8950;56.892;15.090;2022-09-09T03:04:05;5.18;;;2.58;;
17662;SDS011;8950;56.892;15.090;2022-09-09T03:06:31;2.70;;;2.50;;
17662;SDS011;8950;56.892;15.090;2022-09-09T03:08:58;4.93;;;2.63;;
17662;SDS011;8950;56.892;15.090;2022-09-09T03:11:28;5.53;;;2.55;;
17662;SDS011;8950;56.892;15.090;2022-09-09T03:13:54;4.95;;;2.65;;
17662;SDS011;8950;56.892;15.090;2022-09-09T03:16:21;4.25;;;2.60;;
17662;SDS011;8950;56.892;15.090;2022-09-09T03:18:47;6.68;;;2.80;;
17662;SDS011;8950;56.892;15.090;2022-09-09T03:21:14;5.20;;;2.22;;
17662;SDS011;8950;56.892;15.090;2022-09-09T03:23:40;4.50;;;2.70;;
17662;SDS011;8950;56.892;15.090;2022-09-09T03:26:07;2.95;;;2.58;;
17662;SDS011;8950;56.892;15.090;2022-09-09T03:28:35;3.72;;;2.80;;
17662;SDS011;8950;56.892;15.090;2022-09-09T03:31:02;3.47;;;2.30;;
17662;SDS011;8950;56.892;15.090;2022-09-09T03:33:28;4.78;;;2.40;;
17662;SDS011;8950;56.892;15.090;2022-09-09T03:35:56;5.35;;;2.45;;
17662;SDS011;8950;56.892;15.090;2022-09-09T03:38:23;3.70;;;2.70;;
17662;SDS011;8950;56.892;15.090;2022-09-09T03:40:50;3.58;;;3.00;;
17662;SDS011;8950;56.892;15.090;2022-09-09T03:43:18;3.40;;;2.83;;
17662;SDS011;8950;56.892;15.090;2022-09-09T03:45:47;5.00;;;3.03;;
17662;SDS011;8950;56.892;15.090;2022-09-09T03:48:14;4.53;;;2.88;;
17662;SDS011;8950;56.892;15.090;2022-09-09T03:50:43;2.85;;;2.63;;
17662;SDS011;8950;56.892;15.090;2022-09-09T03:53:10;5.47;;;2.90;;
17662;SDS011;8950;56.892;15.090;2022-09-09T03:55:36;4.90;;;2.70;;
17662;SDS011;8950;56.892;15.090;2022-09-09T03:58:03;3.50;;;2.30;;
17662;SDS011;8950;56.892;15.090;2022-09-09T04:00:29;3.55;;;2.72;;
17662;SDS011;8950;56.892;15.090;2022-09-09T04:02:57;5.35;;;2.78;;
17662;SDS011;8950;56.892;15.090;2022-09-09T04:05:23;4.55;;;2.47;;
17662;SDS011;8950;56.892;15.090;2022-09-09T04:07:50;6.15;;;2.72;;
17662;SDS011;8950;56.892;15.090;2022-09-09T04:10:17;5.00;;;2.65;;
17662;SDS011;8950;56.892;15.090;2022-09-09T04:12:44;4.30;;;2.60;;
17662;SDS011;8950;56.892;15.090;2022-09-09T04:15:11;3.63;;;2.58;;
17662;SDS011;8950;56.892;15.090;2022-09-09T04:17:37;5.38;;;2.70;;
17662;SDS011;8950;56.892;15.090;2022-09-09T04:20:05;3.05;;;2.75;;
17662;SDS011;8950;56.892;15.090;2022-09-09T04:22:36;4.28;;;2.83;;
17662;SDS011;8950;56.892;15.090;2022-09-09T04:25:04;6.63;;;2.95;;
17662;SDS011;8950;56.892;15.090;2022-09-09T04:27:30;5.20;;;2.50;;
17662;SDS011;8950;56.892;15.090;2022-09-09T04:29:57;4.75;;;2.83;;
17662;SDS011;8950;56.892;15.090;2022-09-09T04:32:24;4.40;;;2.63;;
17662;SDS011;8950;56.892;15.090;2022-09-09T04:34:51;5.30;;;2.80;;
17662;SDS011;8950;56.892;15.090;2022-09-09T04:37:19;4.18;;;2.35;;
17662;SDS011;8950;56.892;15.090;2022-09-09T04:39:45;3.95;;;2.63;;
17662;SDS011;8950;56.892;15.090;2022-09-09T04:42:12;3.33;;;2.85;;
17662;SDS011;8950;56.892;15.090;2022-09-09T04:44:41;2.85;;;2.65;;
17662;SDS011;8950;56.892;15.090;2022-09-09T04:47:07;4.85;;;2.80;;
17662;SDS011;8950;56.892;15.090;2022-09-09T04:49:34;4.05;;;2.60;;
17662;SDS011;8950;56.892;15.090;2022-09-09T04:52:01;5.47;;;2.72;;
17662;SDS011;8950;56.892;15.090;2022-09-09T04:54:29;3.63;;;2.50;;
17662;SDS011;8950;56.892;15.090;2022-09-09T04:56:56;3.60;;;2.50;;
17662;SDS011;8950;56.892;15.090;2022-09-09T04:59:22;5.65;;;2.97;;
17662;SDS011;8950;56.892;15.090;2022-09-09T05:01:48;4.90;;;2.58;;
17662;SDS011;8950;56.892;15.090;2022-09-09T05:04:15;3.47;;;2.30;;
17662;SDS011;8950;56.892;15.090;2022-09-09T05:06:42;3.10;;;2.40;;
17662;SDS011;8950;56.892;15.090;2022-09-09T05:09:08;5.35;;;3.03;;
17662;SDS011;8950;56.892;15.090;2022-09-09T05:11:36;7.10;;;2.97;;
17662;SDS011;8950;56.892;15.090;2022-09-09T05:14:03;4.70;;;2.70;;
17662;SDS011;8950;56.892;15.090;2022-09-09T05:16:30;5.00;;;2.97;;
17662;SDS011;8950;56.892;15.090;2022-09-09T05:18:56;3.57;;;2.70;;
17662;SDS011;8950;56.892;15.090;2022-09-09T05:21:24;4.40;;;2.65;;
17662;SDS011;8950;56.892;15.090;2022-09-09T05:23:51;3.88;;;2.40;;
17662;SDS011;8950;56.892;15.090;2022-09-09T05:26:18;5.13;;;2.85;;
17662;SDS011;8950;56.892;15.090;2022-09-09T05:28:46;4.88;;;2.60;;
17662;SDS011;8950;56.892;15.090;2022-09-09T05:31:13;3.97;;;2.55;;
17662;SDS011;8950;56.892;15.090;2022-09-09T05:33:40;6.85;;;2.80;;
17662;SDS011;8950;56.892;15.090;2022-09-09T05:36:08;5.68;;;2.63;;
17662;SDS011;8950;56.892;15.090;2022-09-09T05:38:35;6.80;;;2.83;;
17662;SDS011;8950;56.892;15.090;2022-09-09T05:41:03;7.07;;;3.08;;
17662;SDS011;8950;56.892;15.090;2022-09-09T05:43:29;5.07;;;2.80;;
17662;SDS011;8950;56.892;15.090;2022-09-09T05:46:01;4.20;;;2.67;;
17662;SDS011;8950;56.892;15.090;2022-09-09T05:48:28;5.10;;;2.85;;
17662;SDS011;8950;56.892;15.090;2022-09-09T05:50:55;6.00;;;2.70;;
17662;SDS011;8950;56.892;15.090;2022-09-09T05:53:22;5.40;;;2.80;;
17662;SDS011;8950;56.892;15.090;2022-09-09T05:55:48;7.40;;;3.13;;
17662;SDS011;8950;56.892;15.090;2022-09-09T05:58:15;4.78;;;3.08;;
17662;SDS011;8950;56.892;15.090;2022-09-09T06:00:42;5.93;;;3.15;;
17662;SDS011;8950;56.892;15.090;2022-09-09T06:03:10;2.88;;;2.60;;
17662;SDS011;8950;56.892;15.090;2022-09-09T06:05:37;4.85;;;2.80;;
17662;SDS011;8950;56.892;15.090;2022-09-09T06:08:04;3.45;;;2.63;;
17662;SDS011;8950;56.892;15.090;2022-09-09T06:10:30;4.38;;;2.80;;
17662;SDS011;8950;56.892;15.090;2022-09-09T06:12:57;4.57;;;2.65;;
17662;SDS011;8950;56.892;15.090;2022-09-09T06:15:23;4.72;;;2.60;;
17662;SDS011;8950;56.892;15.090;2022-09-09T06:17:53;6.75;;;3.08;;
17662;SDS011;8950;56.892;15.090;2022-09-09T06:20:21;5.53;;;2.83;;
17662;SDS011;8950;56.892;15.090;2022-09-09T06:22:48;5.22;;;3.05;;
17662;SDS011;8950;56.892;15.090;2022-09-09T06:25:14;3.92;;;2.60;;
17662;SDS011;8950;56.892;15.090;2022-09-09T06:27:41;5.57;;;2.80;;
17662;SDS011;8950;56.892;15.090;2022-09-09T06:30:08;5.90;;;2.90;;
17662;SDS011;8950;56.892;15.090;2022-09-09T06:32:34;3.05;;;2.60;;
17662;SDS011;8950;56.892;15.090;2022-09-09T06:35:03;5.38;;;2.90;;
17662;SDS011;8950;56.892;15.090;2022-09-09T06:37:31;4.10;;;2.80;;
17662;SDS011;8950;56.892;15.090;2022-09-09T06:39:57;5.72;;;2.53;;
17662;SDS011;8950;56.892;15.090;2022-09-09T06:42:23;5.80;;;2.80;;
17662;SDS011;8950;56.892;15.090;2022-09-09T06:44:50;4.55;;;2.60;;
17662;SDS011;8950;56.892;15.090;2022-09-09T06:47:17;3.15;;;2.45;;
17662;SDS011;8950;56.892;15.090;2022-09-09T06:49:43;8.93;;;3.20;;
17662;SDS011;8950;56.892;15.090;2022-09-09T06:52:10;7.65;;;2.80;;
17662;SDS011;8950;56.892;15.090;2022-09-09T06:54:38;5.03;;;3.10;;
17662;SDS011;8950;56.892;15.090;2022-09-09T06:57:04;6.72;;;2.97;;
17662;SDS011;8950;56.892;15.090;2022-09-09T06:59:32;5.10;;;2.70;;
17662;SDS011;8950;56.892;15.090;2022-09-09T07:01:58;4.77;;;2.90;;
17662;SDS011;8950;56.892;15.090;2022-09-09T07:04:26;4.70;;;2.90;;
17662;SDS011;8950;56.892;15.090;2022-09-09T07:06:52;4.78;;;3.03;;
17662;SDS011;8950;56.892;15.090;2022-09-09T07:09:18;3.65;;;2.70;;
17662;SDS011;8950;56.892;15.090;2022-09-09T07:11:47;4.28;;;2.83;;
17662;SDS011;8950;56.892;15.090;2022-09-09T07:14:14;5.70;;;2.83;;
17662;SDS011;8950;56.892;15.090;2022-09-09T07:16:42;5.78;;;3.17;;
17662;SDS011;8950;56.892;15.090;2022-09-09T07:19:08;3.72;;;2.70;;
17662;SDS011;8950;56.892;15.090;2022-09-09T07:21:36;6.43;;;3.03;;
17662;SDS011;8950;56.892;15.090;2022-09-09T07:24:03;5.22;;;2.90;;
17662;SDS011;8950;56.892;15.090;2022-09-09T07:26:32;5.25;;;2.83;;
17662;SDS011;8950;56.892;15.090;2022-09-09T07:29:00;6.30;;;2.90;;
17662;SDS011;8950;56.892;15.090;2022-09-09T07:31:27;3.10;;;2.80;;
17662;SDS011;8950;56.892;15.090;2022-09-09T07:33:55;5.35;;;3.30;;
17662;SDS011;8950;56.892;15.090;2022-09-09T07:36:22;3.70;;;2.70;;
17662;SDS011;8950;56.892;15.090;2022-09-09T07:38:50;4.90;;;3.00;;
17662;SDS011;8950;56.892;15.090;2022-09-09T07:41:18;6.63;;;3.10;;
17662;SDS011;8950;56.892;15.090;2022-09-09T07:43:45;8.38;;;3.17;;
17662;SDS011;8950;56.892;15.090;2022-09-09T07:46:14;5.75;;;3.30;;
17662;SDS011;8950;56.892;15.090;2022-09-09T07:48:43;6.57;;;2.88;;
17662;SDS011;8950;56.892;15.090;2022-09-09T07:51:10;4.40;;;2.92;;
17662;SDS011;8950;56.892;15.090;2022-09-09T07:53:39;4.97;;;2.90;;
17662;SDS011;8950;56.892;15.090;2022-09-09T07:56:06;7.03;;;2.83;;
17662;SDS011;8950;56.892;15.090;2022-09-09T07:58:34;7.70;;;3.10;;
17662;SDS011;8950;56.892;15.090;2022-09-09T08:01:00;6.30;;;2.95;;
17662;SDS011;8950;56.892;15.090;2022-09-09T08:03:32;5.00;;;2.75;;
17662;SDS011;8950;56.892;15.090;2022-09-09T08:06:00;14.13;;;3.90;;
17662;SDS011;8950;56.892;15.090;2022-09-09T08:08:27;12.00;;;3.42;;
17662;SDS011;8950;56.892;15.090;2022-09-09T08:10:54;7.33;;;3.33;;
17662;SDS011;8950;56.892;15.090;2022-09-09T08:13:27;7.15;;;3.22;;
17662;SDS011;8950;56.892;15.090;2022-09-09T08:15:53;5.90;;;3.17;;
17662;SDS011;8950;56.892;15.090;2022-09-09T08:18:20;5.40;;;3.03;;
17662;SDS011;8950;56.892;15.090;2022-09-09T08:20:48;6.75;;;3.50;;
17662;SDS011;8950;56.892;15.090;2022-09-09T08:23:14;7.57;;;3.25;;
17662;SDS011;8950;56.892;15.090;2022-09-09T08:25:41;6.20;;;3.20;;
17662;SDS011;8950;56.892;15.090;2022-09-09T08:28:07;7.03;;;3.28;;
17662;SDS011;8950;56.892;15.090;2022-09-09T08:30:35;4.63;;;2.90;;
17662;SDS011;8950;56.892;15.090;2022-09-09T08:33:02;4.80;;;3.15;;
17662;SDS011;8950;56.892;15.090;2022-09-09T08:35:29;4.88;;;2.80;;
17662;SDS011;8950;56.892;15.090;2022-09-09T08:37:58;4.60;;;2.90;;
17662;SDS011;8950;56.892;15.090;2022-09-09T08:40:26;6.88;;;3.80;;
17662;SDS011;8950;56.892;15.090;2022-09-09T08:42:55;6.00;;;3.17;;
17662;SDS011;8950;56.892;15.090;2022-09-09T08:45:25;4.75;;;3.55;;
17662;SDS011;8950;56.892;15.090;2022-09-09T08:48:00;6.13;;;3.47;;
17662;SDS011;8950;56.892;15.090;2022-09-09T08:50:28;6.90;;;3.17;;
17662;SDS011;8950;56.892;15.090;2022-09-09T08:52:59;5.22;;;3.15;;
17662;SDS011;8950;56.892;15.090;2022-09-09T08:55:29;6.63;;;3.25;;
17662;SDS011;8950;56.892;15.090;2022-09-09T08:58:01;4.82;;;3.20;;
17662;SDS011;8950;56.892;15.090;2022-09-09T09:00:29;4.72;;;3.10;;
17662;SDS011;8950;56.892;15.090;2022-09-09T09:03:00;5.18;;;3.20;;
17662;SDS011;8950;56.892;15.090;2022-09-09T09:05:32;5.45;;;3.50;;
17662;SDS011;8950;56.892;15.090;2022-09-09T09:08:06;4.10;;;3.15;;
17662;SDS011;8950;56.892;15.090;2022-09-09T09:10:36;7.32;;;3.80;;
17662;SDS011;8950;56.892;15.090;2022-09-09T09:13:07;7.28;;;3.70;;
17662;SDS011;8950;56.892;15.090;2022-09-09T09:15:36;3.42;;;3.13;;
17662;SDS011;8950;56.892;15.090;2022-09-09T09:18:03;6.05;;;3.30;;
17662;SDS011;8950;56.892;15.090;2022-09-09T09:20:32;4.47;;;3.30;;
17662;SDS011;8950;56.892;15.090;2022-09-09T09:23:04;4.47;;;3.60;;
17662;SDS011;8950;56.892;15.090;2022-09-09T09:25:31;5.25;;;3.28;;
17662;SDS011;8950;56.892;15.090;2022-09-09T09:28:02;5.47;;;3.85;;
17662;SDS011;8950;56.892;15.090;2022-09-09T09:30:33;4.50;;;3.25;;
17662;SDS011;8950;56.892;15.090;2022-09-09T09:33:01;5.95;;;3.40;;
17662;SDS011;8950;56.892;15.090;2022-09-09T09:35:29;4.70;;;3.08;;
17662;SDS011;8950;56.892;15.090;2022-09-09T09:37:55;5.10;;;3.38;;
17662;SDS011;8950;56.892;15.090;2022-09-09T09:40:23;8.25;;;3.67;;
17662;SDS011;8950;56.892;15.090;2022-09-09T09:42:51;6.83;;;3.73;;
17662;SDS011;8950;56.892;15.090;2022-09-09T09:45:20;4.47;;;3.35;;
17662;SDS011;8950;56.892;15.090;2022-09-09T09:47:57;7.65;;;3.80;;
17662;SDS011;8950;56.892;15.090;2022-09-09T09:50:24;5.53;;;3.60;;
17662;SDS011;8950;56.892;15.090;2022-09-09T09:52:53;5.70;;;3.70;;
17662;SDS011;8950;56.892;15.090;2022-09-09T09:55:20;4.82;;;3.63;;
17662;SDS011;8950;56.892;15.090;2022-09-09T09:57:49;4.75;;;3.70;;
17662;SDS011;8950;56.892;15.090;2022-09-09T10:00:17;5.10;;;3.10;;
17662;SDS011;8950;56.892;15.090;2022-09-09T10:02:45;5.07;;;3.53;;
17662;SDS011;8950;56.892;15.090;2022-09-09T10:05:13;6.38;;;3.72;;
17662;SDS011;8950;56.892;15.090;2022-09-09T10:07:40;5.75;;;3.78;;
17662;SDS011;8950;56.892;15.090;2022-09-09T10:10:09;3.85;;;3.25;;
17662;SDS011;8950;56.892;15.090;2022-09-09T10:12:41;3.92;;;3.47;;
17662;SDS011;8950;56.892;15.090;2022-09-09T10:15:15;5.80;;;3.15;;
17662;SDS011;8950;56.892;15.090;2022-09-09T10:17:50;4.38;;;3.40;;
17662;SDS011;8950;56.892;15.090;2022-09-09T10:20:22;3.55;;;3.13;;
17662;SDS011;8950;56.892;15.090;2022-09-09T10:22:56;5.65;;;3.20;;
17662;SDS011;8950;56.892;15.090;2022-09-09T10:25:31;5.05;;;3.20;;
17662;SDS011;8950;56.892;15.090;2022-09-09T10:30:47;7.60;;;3.47;;
17662;SDS011;8950;56.892;15.090;2022-09-09T10:33:16;6.35;;;3.72;;
17662;SDS011;8950;56.892;15.090;2022-09-09T10:35:47;5.35;;;3.38;;
17662;SDS011;8950;56.892;15.090;2022-09-09T10:38:19;4.22;;;3.83;;
17662;SDS011;8950;56.892;15.090;2022-09-09T10:40:48;5.25;;;3.78;;
17662;SDS011;8950;56.892;15.090;2022-09-09T10:43:28;5.88;;;3.42;;
17662;SDS011;8950;56.892;15.090;2022-09-09T10:46:01;4.03;;;3.22;;
17662;SDS011;8950;56.892;15.090;2022-09-09T10:48:36;4.77;;;3.53;;
17662;SDS011;8950;56.892;15.090;2022-09-09T10:51:13;5.15;;;3.40;;
17662;SDS011;8950;56.892;15.090;2022-09-09T10:53:45;4.68;;;3.13;;
17662;SDS011;8950;56.892;15.090;2022-09-09T10:56:15;3.40;;;3.10;;
17662;SDS011;8950;56.892;15.090;2022-09-09T10:58:44;4.60;;;3.50;;
17662;SDS011;8950;56.892;15.090;2022-09-09T11:01:17;5.25;;;3.40;;
17662;SDS011;8950;56.892;15.090;2022-09-09T11:03:45;4.00;;;2.97;;
17662;SDS011;8950;56.892;15.090;2022-09-09T11:06:16;5.75;;;3.30;;
17662;SDS011;8950;56.892;15.090;2022-09-09T11:08:44;5.72;;;3.03;;
17662;SDS011;8950;56.892;15.090;2022-09-09T11:11:13;5.45;;;3.17;;
17662;SDS011;8950;56.892;15.090;2022-09-09T11:13:42;5.43;;;3.20;;
17662;SDS011;8950;56.892;15.090;2022-09-09T11:16:17;5.82;;;3.15;;
17662;SDS011;8950;56.892;15.090;2022-09-09T11:18:45;6.25;;;3.22;;
17662;SDS011;8950;56.892;15.090;2022-09-09T11:21:15;4.85;;;3.40;;
17662;SDS011;8950;56.892;15.090;2022-09-09T11:23:44;4.25;;;3.13;;
17662;SDS011;8950;56.892;15.090;2022-09-09T11:26:12;5.63;;;3.40;;
17662;SDS011;8950;56.892;15.090;2022-09-09T11:28:42;4.60;;;3.10;;
17662;SDS011;8950;56.892;15.090;2022-09-09T11:31:19;3.95;;;3.08;;
17662;SDS011;8950;56.892;15.090;2022-09-09T11:33:51;4.13;;;3.10;;
17662;SDS011;8950;56.892;15.090;2022-09-09T11:36:30;4.00;;;3.10;;
17662;SDS011;8950;56.892;15.090;2022-09-09T11:39:00;4.40;;;3.10;;
17662;SDS011;8950;56.892;15.090;2022-09-09T11:41:33;4.53;;;3.30;;
17662;SDS011;8950;56.892;15.090;2022-09-09T11:44:08;5.68;;;3.35;;
17662;SDS011;8950;56.892;15.090;2022-09-09T11:46:37;3.30;;;3.00;;
17662;SDS011;8950;56.892;15.090;2022-09-09T11:49:05;3.53;;;3.23;;
17662;SDS011;8950;56.892;15.090;2022-09-09T11:51:32;3.72;;;3.17;;
17662;SDS011;8950;56.892;15.090;2022-09-09T11:54:01;3.72;;;3.00;;
17662;SDS011;8950;56.892;15.090;2022-09-09T11:56:28;4.25;;;3.08;;
17662;SDS011;8950;56.892;15.090;2022-09-09T11:58:57;3.67;;;3.10;;
17662;SDS011;8950;56.892;15.090;2022-09-09T12:01:33;4.55;;;3.05;;
17662;SDS011;8950;56.892;15.090;2022-09-09T12:06:59;4.13;;;3.17;;
17662;SDS011;8950;56.892;15.090;2022-09-09T12:09:29;3.85;;;2.90;;
17662;SDS011;8950;56.892;15.090;2022-09-09T12:12:07;3.22;;;2.92;;
17662;SDS011;8950;56.892;15.090;2022-09-09T12:14:54;4.07;;;3.03;;
17662;SDS011;8950;56.892;15.090;2022-09-09T12:17:22;3.97;;;2.95;;
17662;SDS011;8950;56.892;15.090;2022-09-09T12:19:59;6.38;;;2.90;;
17662;SDS011;8950;56.892;15.090;2022-09-09T12:22:32;6.30;;;3.38;;
17662;SDS011;8950;56.892;15.090;2022-09-09T12:25:03;6.40;;;3.30;;
17662;SDS011;8950;56.892;15.090;2022-09-09T12:27:33;4.75;;;3.30;;
17662;SDS011;8950;56.892;15.090;2022-09-09T12:30:03;4.68;;;3.20;;
17662;SDS011;8950;56.892;15.090;2022-09-09T12:32:31;4.15;;;3.35;;
17662;SDS011;8950;56.892;15.090;2022-09-09T12:34:58;4.70;;;3.47;;
17662;SDS011;8950;56.892;15.090;2022-09-09T12:37:27;4.63;;;3.30;;
17662;SDS011;8950;56.892;15.090;2022-09-09T12:39:57;5.07;;;3.30;;
17662;SDS011;8950;56.892;15.090;2022-09-09T12:42:24;3.53;;;3.22;;
17662;SDS011;8950;56.892;15.090;2022-09-09T12:44:51;6.95;;;3.53;;
17662;SDS011;8950;56.892;15.090;2022-09-09T12:47:18;3.85;;;2.97;;
17662;SDS011;8950;56.892;15.090;2022-09-09T12:49:45;4.07;;;3.33;;
17662;SDS011;8950;56.892;15.090;2022-09-09T12:52:23;3.55;;;3.20;;
17662;SDS011;8950;56.892;15.090;2022-09-09T12:54:50;4.00;;;3.33;;
17662;SDS011;8950;56.892;15.090;2022-09-09T12:57:20;5.43;;;3.28;;
17662;SDS011;8950;56.892;15.090;2022-09-09T12:59:49;4.20;;;3.40;;
17662;SDS011;8950;56.892;15.090;2022-09-09T13:02:20;5.38;;;2.95;;
17662;SDS011;8950;56.892;15.090;2022-09-09T13:04:47;3.33;;;3.00;;
17662;SDS011;8950;56.892;15.090;2022-09-09T13:07:15;4.45;;;2.92;;
17662;SDS011;8950;56.892;15.090;2022-09-09T13:09:42;3.35;;;3.05;;
17662;SDS011;8950;56.892;15.090;2022-09-09T13:12:11;3.25;;;2.88;;
17662;SDS011;8950;56.892;15.090;2022-09-09T13:14:42;3.05;;;2.75;;
17662;SDS011;8950;56.892;15.090;2022-09-09T13:17:19;4.32;;;3.20;;
17662;SDS011;8950;56.892;15.090;2022-09-09T13:19:46;4.45;;;3.30;;
17662;SDS011;8950;56.892;15.090;2022-09-09T13:22:19;2.88;;;2.50;;
17662;SDS011;8950;56.892;15.090;2022-09-09T13:24:46;4.95;;;3.00;;
17662;SDS011;8950;56.892;15.090;2022-09-09T13:27:23;3.20;;;2.90;;
17662;SDS011;8950;56.892;15.090;2022-09-09T13:29:52;5.20;;;3.20;;
17662;SDS011;8950;56.892;15.090;2022-09-09T13:32:20;3.58;;;3.00;;
17662;SDS011;8950;56.892;15.090;2022-09-09T13:34:50;3.63;;;3.00;;
17662;SDS011;8950;56.892;15.090;2022-09-09T13:37:17;3.75;;;3.10;;
17662;SDS011;8950;56.892;15.090;2022-09-09T13:39:50;4.32;;;3.47;;
17662;SDS011;8950;56.892;15.090;2022-09-09T13:42:21;3.83;;;3.22;;
17662;SDS011;8950;56.892;15.090;2022-09-09T13:44:49;4.72;;;3.20;;
17662;SDS011;8950;56.892;15.090;2022-09-09T13:47:18;4.57;;;3.25;;
17662;SDS011;8950;56.892;15.090;2022-09-09T13:49:45;4.38;;;3.40;;
17662;SDS011;8950;56.892;15.090;2022-09-09T13:52:12;3.88;;;3.20;;
17662;SDS011;8950;56.892;15.090;2022-09-09T13:54:39;4.03;;;3.03;;
17662;SDS011;8950;56.892;15.090;2022-09-09T13:57:06;3.63;;;3.33;;
17662;SDS011;8950;56.892;15.090;2022-09-09T13:59:40;3.38;;;3.08;;
17662;SDS011;8950;56.892;15.090;2022-09-09T14:02:06;4.18;;;3.10;;
17662;SDS011;8950;56.892;15.090;2022-09-09T14:04:34;4.35;;;2.95;;
17662;SDS011;8950;56.892;15.090;2022-09-09T14:07:01;5.15;;;3.00;;
17662;SDS011;8950;56.892;15.090;2022-09-09T14:09:27;4.97;;;3.00;;
17662;SDS011;8950;56.892;15.090;2022-09-09T14:11:54;2.97;;;2.70;;
17662;SDS011;8950;56.892;15.090;2022-09-09T14:14:21;4.95;;;3.15;;
17662;SDS011;8950;56.892;15.090;2022-09-09T14:16:47;4.50;;;2.90;;
17662;SDS011;8950;56.892;15.090;2022-09-09T14:19:13;3.08;;;2.60;;
17662;SDS011;8950;56.892;15.090;2022-09-09T14:21:41;3.78;;;3.30;;
17662;SDS011;8950;56.892;15.090;2022-09-09T14:24:07;3.97;;;2.73;;
17662;SDS011;8950;56.892;15.090;2022-09-09T14:26:34;4.57;;;2.85;;
17662;SDS011;8950;56.892;15.090;2022-09-09T14:29:00;2.85;;;2.65;;
17662;SDS011;8950;56.892;15.090;2022-09-09T14:31:27;2.63;;;2.42;;
17662;SDS011;8950;56.892;15.090;2022-09-09T14:33:53;3.83;;;2.60;;
17662;SDS011;8950;56.892;15.090;2022-09-09T14:36:20;3.00;;;2.70;;
17662;SDS011;8950;56.892;15.090;2022-09-09T14:38:49;3.38;;;2.60;;
17662;SDS011;8950;56.892;15.090;2022-09-09T14:41:16;3.60;;;2.55;;
17662;SDS011;8950;56.892;15.090;2022-09-09T14:43:43;3.07;;;2.67;;
17662;SDS011;8950;56.892;15.090;2022-09-09T14:46:11;3.00;;;2.42;;
17662;SDS011;8950;56.892;15.090;2022-09-09T14:48:37;2.83;;;2.53;;
17662;SDS011;8950;56.892;15.090;2022-09-09T14:51:06;2.60;;;2.35;;
17662;SDS011;8950;56.892;15.090;2022-09-09T14:53:32;2.92;;;2.58;;
17662;SDS011;8950;56.892;15.090;2022-09-09T14:56:04;4.15;;;2.53;;
17662;SDS011;8950;56.892;15.090;2022-09-09T14:58:31;2.78;;;2.53;;
17662;SDS011;8950;56.892;15.090;2022-09-09T15:01:01;3.13;;;2.50;;
17662;SDS011;8950;56.892;15.090;2022-09-09T15:03:27;2.70;;;2.50;;
17662;SDS011;8950;56.892;15.090;2022-09-09T15:05:54;4.53;;;2.70;;
17662;SDS011;8950;56.892;15.090;2022-09-09T15:08:20;2.63;;;2.42;;